Time;durP1;ratioP1;P1;durP2;ratioP2;P2;SDS_P1;SDS_P2;PMS_P1;PMS_P2;Temp;Humidity;BMP_temperature;BMP_pressure;BME280_temperature;BME280_humidity;BME280_pressure;Samples;Min_cycle;Max_cycle;Signal;HPM_P1;HPM_P2
2023/12/21 00:00:56;;;;;;;13.15;2.20;;;;;;;;;;5073803;28;20008;-33
2023/12/21 00:03:21;;;;;;;12.57;2.35;;;;;;;;;;5075368;28;20040;-32
2023/12/21 00:05:46;;;;;;;14.13;2.47;;;;;;;;;;5077976;28;20082;-32
2023/12/21 00:08:12;;;;;;;14.83;2.10;;;;;;;;;;5077989;28;20277;-33
2023/12/21 00:10:37;;;;;;;13.30;2.20;;;;;;;;;;5077636;28;20294;-33
2023/12/21 00:13:02;;;;;;;15.43;2.60;;;;;;;;;;5076048;28;20273;-33
2023/12/21 00:15:27;;;;;;;10.82;2.15;;;;;;;;;;5077288;28;20098;-33
2023/12/21 00:17:53;;;;;;;15.10;2.30;;;;;;;;;;5077510;28;20017;-33
2023/12/21 00:20:20;;;;;;;12.45;2.40;;;;;;;;;;5077284;28;20073;-34
2023/12/21 00:22:45;;;;;;;15.23;1.90;;;;;;;;;;5077131;28;20046;-34
2023/12/21 00:25:10;;;;;;;13.20;2.35;;;;;;;;;;5077088;28;20016;-33
2023/12/21 00:27:36;;;;;;;16.63;2.15;;;;;;;;;;5077015;28;20428;-34
2023/12/21 00:30:01;;;;;;;11.17;2.30;;;;;;;;;;5077009;28;20017;-34
2023/12/21 00:32:26;;;;;;;10.73;2.13;;;;;;;;;;5077195;28;20255;-34
2023/12/21 00:34:51;;;;;;;12.23;2.10;;;;;;;;;;5077152;28;20251;-34
2023/12/21 00:37:16;;;;;;;11.77;2.40;;;;;;;;;;5076737;28;20752;-34
2023/12/21 00:39:42;;;;;;;12.25;2.80;;;;;;;;;;5076996;28;20294;-34
2023/12/21 00:42:07;;;;;;;11.93;2.50;;;;;;;;;;5077048;28;20028;-34
2023/12/21 00:44:32;;;;;;;14.57;2.33;;;;;;;;;;5075503;28;20027;-33
2023/12/21 00:46:57;;;;;;;15.82;2.10;;;;;;;;;;5076897;28;20313;-33
2023/12/21 00:49:22;;;;;;;8.20;1.80;;;;;;;;;;5076940;28;20375;-34
2023/12/21 00:51:47;;;;;;;11.83;2.50;;;;;;;;;;5076534;28;20259;-34
2023/12/21 00:54:13;;;;;;;16.40;2.13;;;;;;;;;;5076575;28;20695;-34
2023/12/21 00:56:38;;;;;;;12.23;2.10;;;;;;;;;;5077085;28;20263;-34
2023/12/21 00:59:04;;;;;;;13.45;2.17;;;;;;;;;;5076672;28;20819;-34
2023/12/21 01:01:29;;;;;;;12.25;2.00;;;;;;;;;;5076479;28;20064;-34
2023/12/21 01:03:54;;;;;;;13.73;2.17;;;;;;;;;;5076235;28;20052;-34
2023/12/21 01:06:19;;;;;;;13.55;2.88;;;;;;;;;;5076293;28;20016;-33
2023/12/21 01:08:44;;;;;;;13.20;2.00;;;;;;;;;;5076531;28;20443;-34
2023/12/21 01:11:10;;;;;;;11.77;2.00;;;;;;;;;;5076173;28;20108;-33
2023/12/21 01:13:36;;;;;;;12.52;2.30;;;;;;;;;;5076414;28;20278;-34
2023/12/21 01:16:01;;;;;;;14.45;2.08;;;;;;;;;;5075695;28;20383;-33
2023/12/21 01:18:26;;;;;;;12.27;2.10;;;;;;;;;;5075977;28;20027;-33
2023/12/21 01:20:51;;;;;;;13.73;2.10;;;;;;;;;;5076093;28;20254;-33
2023/12/21 01:23:16;;;;;;;13.48;2.10;;;;;;;;;;5076239;28;20583;-33
2023/12/21 01:25:41;;;;;;;10.90;2.30;;;;;;;;;;5075956;28;20027;-33
2023/12/21 01:28:07;;;;;;;14.45;2.35;;;;;;;;;;5076111;28;20342;-33
2023/12/21 01:30:32;;;;;;;9.65;2.17;;;;;;;;;;5076420;28;20017;-32
2023/12/21 01:32:57;;;;;;;11.85;1.98;;;;;;;;;;5076068;28;20020;-34
2023/12/21 01:35:23;;;;;;;12.50;2.67;;;;;;;;;;5075734;28;20093;-33
2023/12/21 01:37:48;;;;;;;11.57;2.13;;;;;;;;;;5076283;28;20021;-33
2023/12/21 01:40:13;;;;;;;11.47;2.40;;;;;;;;;;5075671;28;20259;-33
2023/12/21 01:42:38;;;;;;;12.35;2.00;;;;;;;;;;5075862;28;20282;-33
2023/12/21 01:45:04;;;;;;;9.80;2.20;;;;;;;;;;5075628;28;20024;-33
2023/12/21 01:47:29;;;;;;;15.02;2.05;;;;;;;;;;5075537;28;20020;-33
2023/12/21 01:49:54;;;;;;;15.47;2.37;;;;;;;;;;5075561;28;20396;-34
2023/12/21 01:52:20;;;;;;;12.77;2.67;;;;;;;;;;5075705;28;20283;-33
2023/12/21 01:54:45;;;;;;;13.13;2.40;;;;;;;;;;5075970;28;20443;-34
2023/12/21 01:57:10;;;;;;;11.53;2.10;;;;;;;;;;5075316;28;20475;-34
2023/12/21 01:59:35;;;;;;;9.38;2.05;;;;;;;;;;5075307;28;20312;-33
2023/12/21 02:02:01;;;;;;;8.73;2.03;;;;;;;;;;5075798;28;20013;-34
2023/12/21 02:04:26;;;;;;;15.18;2.30;;;;;;;;;;5075054;28;20289;-33
2023/12/21 02:06:51;;;;;;;10.60;2.30;;;;;;;;;;5075243;28;20073;-34
2023/12/21 02:09:16;;;;;;;14.33;2.73;;;;;;;;;;5075723;28;20480;-33
2023/12/21 02:11:41;;;;;;;12.60;2.67;;;;;;;;;;5074978;28;20251;-34
2023/12/21 02:14:06;;;;;;;12.47;2.10;;;;;;;;;;5075650;28;20017;-33
2023/12/21 02:16:46;;;;;;;12.93;2.20;;;;;;;;;;5075305;28;20637;-33
2023/12/21 02:19:12;;;;;;;8.55;2.03;;;;;;;;;;5075130;28;20271;-34
2023/12/21 02:21:39;;;;;;;17.08;2.22;;;;;;;;;;5075444;28;20012;-33
2023/12/21 02:24:09;;;;;;;16.90;1.98;;;;;;;;;;5074729;28;20108;-33
2023/12/21 02:26:35;;;;;;;10.60;2.10;;;;;;;;;;5073041;28;20027;-33
2023/12/21 02:29:00;;;;;;;15.17;2.20;;;;;;;;;;5074707;28;20017;-34
2023/12/21 02:31:25;;;;;;;7.33;1.73;;;;;;;;;;5075247;28;20274;-33
2023/12/21 02:33:50;;;;;;;13.27;1.77;;;;;;;;;;5075202;28;20250;-33
2023/12/21 02:36:15;;;;;;;11.67;2.13;;;;;;;;;;5074600;28;20689;-33
2023/12/21 02:38:40;;;;;;;11.48;2.55;;;;;;;;;;5074425;28;20328;-33
2023/12/21 02:41:06;;;;;;;22.37;2.47;;;;;;;;;;5075060;28;20020;-33
2023/12/21 02:43:31;;;;;;;12.47;2.07;;;;;;;;;;5074966;28;20028;-33
2023/12/21 02:45:56;;;;;;;9.67;2.20;;;;;;;;;;5074401;28;20247;-33
2023/12/21 02:48:21;;;;;;;13.43;2.30;;;;;;;;;;5074896;28;20254;-34
2023/12/21 02:50:46;;;;;;;8.85;1.95;;;;;;;;;;5074292;28;20500;-33
2023/12/21 02:53:11;;;;;;;13.43;2.37;;;;;;;;;;5074874;28;20023;-34
2023/12/21 02:55:36;;;;;;;11.10;2.10;;;;;;;;;;5074219;28;20668;-34
2023/12/21 02:58:02;;;;;;;12.52;2.38;;;;;;;;;;5074066;28;20365;-33
2023/12/21 03:00:27;;;;;;;14.73;2.53;;;;;;;;;;5074400;28;20051;-34
2023/12/21 03:02:52;;;;;;;18.37;3.03;;;;;;;;;;5074006;28;20055;-33
2023/12/21 03:05:17;;;;;;;15.90;2.87;;;;;;;;;;5074061;28;20028;-33
2023/12/21 03:07:42;;;;;;;11.50;2.63;;;;;;;;;;5074254;28;20255;-33
2023/12/21 03:10:08;;;;;;;15.10;2.53;;;;;;;;;;5073880;28;20052;-33
2023/12/21 03:12:33;;;;;;;14.20;2.60;;;;;;;;;;5074380;28;20307;-33
2023/12/21 03:14:58;;;;;;;16.97;2.53;;;;;;;;;;5074420;28;20020;-33
2023/12/21 03:17:23;;;;;;;9.60;2.00;;;;;;;;;;5073727;28;20254;-33
2023/12/21 03:19:49;;;;;;;15.43;2.73;;;;;;;;;;5073706;28;20242;-33
2023/12/21 03:22:14;;;;;;;11.30;2.17;;;;;;;;;;5074181;28;20239;-34
2023/12/21 03:24:39;;;;;;;10.45;2.30;;;;;;;;;;5073882;28;20096;-34
2023/12/21 03:27:05;;;;;;;14.82;2.28;;;;;;;;;;5073812;28;20047;-34
2023/12/21 03:29:30;;;;;;;9.50;2.33;;;;;;;;;;5073591;28;20053;-33
2023/12/21 03:31:56;;;;;;;10.70;2.33;;;;;;;;;;5073584;28;20345;-34
2023/12/21 03:34:22;;;;;;;9.07;3.03;;;;;;;;;;5073907;28;20255;-33
2023/12/21 03:36:47;;;;;;;13.45;2.20;;;;;;;;;;5073557;28;20016;-33
2023/12/21 03:39:12;;;;;;;13.68;2.38;;;;;;;;;;5073167;28;20021;-34
2023/12/21 03:41:37;;;;;;;15.87;2.40;;;;;;;;;;5073525;28;20025;-33
2023/12/21 03:44:03;;;;;;;15.60;2.75;;;;;;;;;;5073486;28;20317;-33
2023/12/21 03:46:28;;;;;;;10.48;2.53;;;;;;;;;;5073422;28;20024;-33
2023/12/21 03:48:53;;;;;;;15.20;2.40;;;;;;;;;;5074005;28;20024;-33
2023/12/21 03:51:18;;;;;;;11.53;2.23;;;;;;;;;;5073446;28;20338;-33
2023/12/21 03:53:43;;;;;;;14.30;2.43;;;;;;;;;;5073955;28;20251;-34
2023/12/21 03:56:08;;;;;;;12.03;2.10;;;;;;;;;;5073391;28;20266;-33
2023/12/21 03:58:35;;;;;;;14.23;2.30;;;;;;;;;;5073858;28;20274;-33
2023/12/21 04:01:00;;;;;;;14.13;2.15;;;;;;;;;;5073393;28;20281;-33
2023/12/21 04:03:25;;;;;;;10.27;2.00;;;;;;;;;;5073468;28;20036;-34
2023/12/21 04:05:53;;;;;;;12.57;2.03;;;;;;;;;;5073512;28;20289;-33
2023/12/21 04:08:21;;;;;;;14.85;2.20;;;;;;;;;;5073626;28;20479;-34
2023/12/21 04:10:46;;;;;;;11.27;2.30;;;;;;;;;;5073258;28;20025;-34
2023/12/21 04:13:11;;;;;;;12.73;2.25;;;;;;;;;;5073485;28;20067;-34
2023/12/21 04:15:36;;;;;;;14.88;2.05;;;;;;;;;;5073452;28;20021;-33
2023/12/21 04:18:01;;;;;;;16.00;2.30;;;;;;;;;;5073204;28;20017;-34
2023/12/21 04:20:27;;;;;;;11.67;2.10;;;;;;;;;;5073157;28;20029;-33
2023/12/21 04:22:52;;;;;;;10.87;2.43;;;;;;;;;;5073690;28;20247;-34
2023/12/21 04:25:17;;;;;;;13.67;1.93;;;;;;;;;;5073062;28;20598;-34
2023/12/21 04:27:42;;;;;;;13.33;2.33;;;;;;;;;;5073624;28;20029;-34
2023/12/21 04:30:08;;;;;;;15.93;2.30;;;;;;;;;;5073074;28;20614;-34
2023/12/21 04:32:33;;;;;;;14.45;2.25;;;;;;;;;;5073588;28;20239;-34
2023/12/21 04:34:58;;;;;;;17.67;2.93;;;;;;;;;;5073030;28;20020;-34
2023/12/21 04:37:23;;;;;;;8.15;2.15;;;;;;;;;;5072969;28;20727;-34
2023/12/21 04:39:48;;;;;;;10.88;2.15;;;;;;;;;;5073472;28;20016;-34
2023/12/21 04:42:13;;;;;;;8.77;2.00;;;;;;;;;;5073520;28;20024;-33
2023/12/21 04:44:39;;;;;;;12.33;1.70;;;;;;;;;;5072554;28;20009;-34
2023/12/21 04:47:08;;;;;;;13.83;2.40;;;;;;;;;;5072452;28;20353;-34
2023/12/21 04:49:33;;;;;;;14.27;2.03;;;;;;;;;;5072677;28;20295;-33
2023/12/21 04:51:58;;;;;;;9.63;1.90;;;;;;;;;;5075997;28;20510;-33
2023/12/21 04:54:24;;;;;;;8.93;2.00;;;;;;;;;;5076373;28;20325;-34
2023/12/21 04:56:49;;;;;;;11.47;2.10;;;;;;;;;;5075988;28;20278;-34
2023/12/21 04:59:14;;;;;;;9.83;1.73;;;;;;;;;;5076161;28;20314;-33
2023/12/21 05:01:39;;;;;;;14.68;2.03;;;;;;;;;;5076671;28;20753;-34
2023/12/21 05:04:06;;;;;;;11.67;2.17;;;;;;;;;;5076265;28;20037;-34
2023/12/21 05:06:31;;;;;;;10.77;1.73;;;;;;;;;;5076580;28;20250;-34
2023/12/21 05:08:56;;;;;;;15.53;2.23;;;;;;;;;;5076312;28;20482;-33
2023/12/21 05:11:22;;;;;;;13.68;2.10;;;;;;;;;;5076447;28;20247;-34
2023/12/21 05:13:47;;;;;;;15.20;2.00;;;;;;;;;;5076150;28;20375;-34
2023/12/21 05:16:12;;;;;;;12.80;2.20;;;;;;;;;;5076713;28;20027;-33
2023/12/21 05:18:37;;;;;;;13.02;2.10;;;;;;;;;;5076267;28;20822;-33
2023/12/21 05:21:02;;;;;;;10.88;1.98;;;;;;;;;;5076624;28;20043;-33
2023/12/21 05:23:28;;;;;;;13.27;2.13;;;;;;;;;;5076590;28;20470;-33
2023/12/21 05:25:53;;;;;;;9.90;1.93;;;;;;;;;;5076482;28;20255;-33
2023/12/21 05:28:18;;;;;;;10.83;2.40;;;;;;;;;;5075952;28;20610;-34
2023/12/21 05:30:43;;;;;;;11.97;1.97;;;;;;;;;;5076493;28;20259;-33
2023/12/21 05:33:08;;;;;;;8.43;1.90;;;;;;;;;;5076049;28;20606;-33
2023/12/21 05:35:34;;;;;;;9.88;2.35;;;;;;;;;;5076108;28;20478;-33
2023/12/21 05:37:59;;;;;;;12.27;2.10;;;;;;;;;;5075715;28;20028;-33
2023/12/21 05:40:24;;;;;;;11.95;1.83;;;;;;;;;;5076255;28;20019;-33
2023/12/21 05:42:49;;;;;;;12.30;1.63;;;;;;;;;;5076236;28;20104;-34
2023/12/21 05:45:15;;;;;;;14.07;2.42;;;;;;;;;;5075604;28;20583;-34
2023/12/21 05:47:40;;;;;;;11.05;1.70;;;;;;;;;;5075734;28;20133;-34
2023/12/21 05:50:05;;;;;;;7.17;1.57;;;;;;;;;;5076133;28;20023;-34
2023/12/21 05:52:30;;;;;;;10.98;2.20;;;;;;;;;;5074291;28;20273;-34
2023/12/21 05:54:56;;;;;;;11.43;2.10;;;;;;;;;;5075669;28;20455;-34
2023/12/21 05:57:21;;;;;;;13.18;2.10;;;;;;;;;;5075339;28;20032;-34
2023/12/21 05:59:46;;;;;;;14.63;2.08;;;;;;;;;;5075384;28;20027;-34
2023/12/21 06:02:12;;;;;;;15.50;2.15;;;;;;;;;;5075414;28;20016;-34
2023/12/21 06:04:37;;;;;;;12.68;2.40;;;;;;;;;;5075096;28;20067;-34
2023/12/21 06:07:02;;;;;;;10.40;1.88;;;;;;;;;;5075221;28;20098;-34
2023/12/21 06:09:28;;;;;;;10.13;2.10;;;;;;;;;;5075132;28;20024;-33
2023/12/21 06:11:54;;;;;;;8.32;2.10;;;;;;;;;;5075322;28;20016;-34
2023/12/21 06:14:19;;;;;;;12.73;2.03;;;;;;;;;;5075031;28;20024;-34
2023/12/21 06:16:44;;;;;;;10.55;1.83;;;;;;;;;;5075272;28;20116;-34
2023/12/21 06:19:10;;;;;;;12.68;2.63;;;;;;;;;;5075182;28;20021;-33
2023/12/21 06:21:36;;;;;;;8.23;1.83;;;;;;;;;;5074462;28;20452;-33
2023/12/21 06:24:01;;;;;;;10.45;1.80;;;;;;;;;;5074580;28;20027;-33
2023/12/21 06:26:26;;;;;;;13.88;2.10;;;;;;;;;;5074926;28;20017;-34
2023/12/21 06:28:51;;;;;;;11.73;1.90;;;;;;;;;;5075134;28;20100;-34
2023/12/21 06:31:17;;;;;;;9.57;1.90;;;;;;;;;;5075259;28;20250;-34
2023/12/21 06:33:43;;;;;;;10.23;2.35;;;;;;;;;;5074566;28;20523;-34
2023/12/21 06:36:08;;;;;;;12.27;2.10;;;;;;;;;;5074460;28;20107;-33
2023/12/21 06:38:33;;;;;;;14.73;2.13;;;;;;;;;;5075071;28;20118;-34
2023/12/21 06:40:58;;;;;;;6.37;1.77;;;;;;;;;;5074662;28;20040;-33
2023/12/21 06:43:24;;;;;;;10.57;2.13;;;;;;;;;;5074750;28;20028;-33
2023/12/21 06:45:49;;;;;;;8.25;1.83;;;;;;;;;;5074339;28;20741;-33
2023/12/21 06:48:15;;;;;;;8.90;2.03;;;;;;;;;;5074930;28;20024;-34
2023/12/21 06:50:40;;;;;;;14.13;1.97;;;;;;;;;;5074308;28;20734;-34
2023/12/21 06:53:05;;;;;;;11.10;1.93;;;;;;;;;;5074773;28;20286;-34
2023/12/21 06:55:30;;;;;;;8.63;1.48;;;;;;;;;;5074426;28;20266;-32
2023/12/21 06:57:55;;;;;;;13.07;2.37;;;;;;;;;;5074089;28;20345;-34
2023/12/21 07:00:21;;;;;;;11.10;2.05;;;;;;;;;;5074094;28;20259;-34
2023/12/21 07:02:46;;;;;;;12.70;2.30;;;;;;;;;;5073782;28;20048;-34
2023/12/21 07:05:11;;;;;;;10.77;1.87;;;;;;;;;;5074054;28;20020;-33
2023/12/21 07:07:37;;;;;;;11.60;2.73;;;;;;;;;;5074516;28;20352;-34
2023/12/21 07:10:02;;;;;;;10.85;2.33;;;;;;;;;;5073868;28;20277;-32
2023/12/21 07:12:27;;;;;;;11.32;2.00;;;;;;;;;;5073439;28;20146;-32
2023/12/21 07:14:52;;;;;;;7.17;1.80;;;;;;;;;;5073805;28;20031;-32
2023/12/21 07:17:18;;;;;;;10.32;2.35;;;;;;;;;;5074254;28;20274;-33
2023/12/21 07:19:43;;;;;;;15.50;1.90;;;;;;;;;;5073770;28;20047;-34
2023/12/21 07:22:08;;;;;;;7.75;1.90;;;;;;;;;;5073973;28;20243;-32
2023/12/21 07:24:33;;;;;;;10.43;1.70;;;;;;;;;;5073644;28;20028;-32
2023/12/21 07:26:58;;;;;;;11.93;1.90;;;;;;;;;;5073174;28;20107;-33
2023/12/21 07:29:24;;;;;;;8.30;1.63;;;;;;;;;;5073684;28;20725;-34
2023/12/21 07:31:49;;;;;;;13.20;2.00;;;;;;;;;;5074156;28;20270;-34
2023/12/21 07:34:14;;;;;;;9.27;2.03;;;;;;;;;;5073563;28;20745;-34
2023/12/21 07:36:39;;;;;;;8.47;1.70;;;;;;;;;;5074194;28;20103;-34
2023/12/21 07:39:04;;;;;;;11.40;1.70;;;;;;;;;;5073428;28;20625;-32
2023/12/21 07:41:30;;;;;;;8.30;1.65;;;;;;;;;;5073666;28;20266;-32
2023/12/21 07:43:55;;;;;;;12.73;2.40;;;;;;;;;;5073382;28;20020;-32
2023/12/21 07:46:21;;;;;;;9.68;2.22;;;;;;;;;;5073771;28;20021;-31
2023/12/21 07:48:46;;;;;;;10.32;2.00;;;;;;;;;;5073917;28;20021;-32
2023/12/21 07:51:11;;;;;;;11.67;2.50;;;;;;;;;;5073385;28;20029;-32
2023/12/21 07:53:37;;;;;;;11.93;2.20;;;;;;;;;;5073259;28;20288;-33
2023/12/21 07:56:02;;;;;;;12.77;2.27;;;;;;;;;;5073580;28;20070;-33
2023/12/21 07:58:27;;;;;;;13.30;2.20;;;;;;;;;;5073768;28;20371;-33
2023/12/21 08:00:53;;;;;;;14.55;2.47;;;;;;;;;;5073238;28;20027;-32
2023/12/21 08:03:19;;;;;;;12.25;2.72;;;;;;;;;;5073042;28;20046;-33
2023/12/21 08:05:44;;;;;;;8.88;1.85;;;;;;;;;;5073390;28;20416;-33
2023/12/21 08:08:09;;;;;;;12.00;2.53;;;;;;;;;;5073266;28;20055;-33
2023/12/21 08:10:35;;;;;;;9.30;2.00;;;;;;;;;;5073546;28;20270;-33
2023/12/21 08:13:00;;;;;;;9.40;1.95;;;;;;;;;;5073061;28;20254;-31
2023/12/21 08:15:28;;;;;;;8.32;1.63;;;;;;;;;;5073427;28;20478;-30
2023/12/21 08:17:56;;;;;;;13.70;2.20;;;;;;;;;;5073027;28;20025;-31
2023/12/21 08:20:24;;;;;;;12.32;1.95;;;;;;;;;;5073438;28;20048;-32
2023/12/21 08:22:49;;;;;;;11.13;2.03;;;;;;;;;;5073335;28;20025;-32
2023/12/21 08:25:14;;;;;;;11.93;2.00;;;;;;;;;;5074671;28;20089;-31
2023/12/21 08:27:42;;;;;;;16.83;1.92;;;;;;;;;;5077019;28;20136;-31
2023/12/21 08:30:10;;;;;;;13.65;2.38;;;;;;;;;;5077175;28;20024;-31
2023/12/21 08:32:36;;;;;;;14.73;2.10;;;;;;;;;;5076904;28;20024;-33
2023/12/21 08:35:01;;;;;;;11.70;1.80;;;;;;;;;;5077396;28;20035;-31
2023/12/21 08:37:26;;;;;;;14.10;2.63;;;;;;;;;;5077283;28;20336;-31
2023/12/21 08:39:51;;;;;;;13.27;2.47;;;;;;;;;;5077396;28;20040;-31
2023/12/21 08:42:16;;;;;;;14.47;2.03;;;;;;;;;;5075522;28;20308;-31
2023/12/21 08:44:41;;;;;;;9.07;1.57;;;;;;;;;;5077275;28;20246;-31
2023/12/21 08:47:07;;;;;;;7.20;1.65;;;;;;;;;;5076608;28;20404;-31
2023/12/21 08:49:32;;;;;;;12.80;1.90;;;;;;;;;;5076662;28;20069;-30
2023/12/21 08:51:57;;;;;;;16.23;1.92;;;;;;;;;;5077069;28;20304;-31
2023/12/21 08:54:22;;;;;;;14.63;1.70;;;;;;;;;;5076369;28;20020;-31
2023/12/21 08:56:50;;;;;;;10.55;1.73;;;;;;;;;;5076252;28;20269;-31
2023/12/21 08:59:15;;;;;;;13.02;2.38;;;;;;;;;;5076401;28;20053;-31
2023/12/21 09:01:41;;;;;;;13.77;3.50;;;;;;;;;;5076751;28;20016;-32
2023/12/21 09:04:06;;;;;;;14.37;1.83;;;;;;;;;;5076051;28;20044;-33
2023/12/21 09:06:31;;;;;;;15.52;2.40;;;;;;;;;;5076149;28;20258;-31
2023/12/21 09:08:57;;;;;;;13.25;1.85;;;;;;;;;;5076584;28;20349;-31
2023/12/21 09:11:22;;;;;;;15.07;1.90;;;;;;;;;;5076290;28;20017;-33
2023/12/21 09:13:47;;;;;;;18.93;2.00;;;;;;;;;;5076127;28;20081;-31
2023/12/21 09:16:14;;;;;;;17.23;2.33;;;;;;;;;;5076381;28;20258;-32
2023/12/21 09:18:42;;;;;;;21.23;2.17;;;;;;;;;;5076294;28;20513;-31
2023/12/21 09:21:07;;;;;;;12.02;1.75;;;;;;;;;;5075938;28;20100;-31
2023/12/21 09:23:32;;;;;;;12.20;1.87;;;;;;;;;;5075879;28;20110;-31
2023/12/21 09:25:57;;;;;;;9.50;2.50;;;;;;;;;;5075866;28;20786;-31
2023/12/21 09:28:22;;;;;;;16.50;1.80;;;;;;;;;;5076594;28;20267;-31
2023/12/21 09:30:47;;;;;;;11.30;1.70;;;;;;;;;;5075560;28;20401;-31
2023/12/21 09:33:13;;;;;;;13.90;2.00;;;;;;;;;;5075784;28;20262;-32
2023/12/21 09:35:38;;;;;;;13.00;2.37;;;;;;;;;;5075181;28;20246;-31
2023/12/21 09:38:03;;;;;;;7.23;1.53;;;;;;;;;;5075682;28;20364;-31
2023/12/21 09:40:29;;;;;;;11.25;1.50;;;;;;;;;;5075965;28;20274;-31
2023/12/21 09:42:55;;;;;;;15.88;2.22;;;;;;;;;;5075620;28;20036;-31
2023/12/21 09:45:21;;;;;;;10.05;1.30;;;;;;;;;;5074308;28;20047;-31
2023/12/21 09:47:48;;;;;;;13.27;1.77;;;;;;;;;;5075766;28;20021;-32
2023/12/21 09:50:14;;;;;;;11.73;1.65;;;;;;;;;;5075882;28;20020;-31
2023/12/21 09:52:40;;;;;;;9.25;1.83;;;;;;;;;;5075590;28;20532;-31
2023/12/21 09:55:07;;;;;;;10.43;1.30;;;;;;;;;;5075747;28;20024;-31
2023/12/21 09:57:36;;;;;;;14.38;2.35;;;;;;;;;;5075547;28;20016;-31
2023/12/21 10:00:02;;;;;;;8.57;1.50;;;;;;;;;;5075910;28;20028;-32
2023/12/21 10:02:30;;;;;;;14.20;1.73;;;;;;;;;;5074158;28;20020;-32
2023/12/21 10:04:56;;;;;;;10.30;1.67;;;;;;;;;;5075759;28;20020;-31
2023/12/21 10:07:22;;;;;;;13.98;1.70;;;;;;;;;;5075726;28;20363;-32
2023/12/21 10:09:48;;;;;;;15.35;2.20;;;;;;;;;;5075012;28;20024;-32
2023/12/21 10:12:13;;;;;;;11.53;2.07;;;;;;;;;;5075222;28;20077;-32
2023/12/21 10:14:38;;;;;;;10.13;2.00;;;;;;;;;;5075024;28;20738;-31
2023/12/21 10:17:05;;;;;;;10.60;1.95;;;;;;;;;;5075459;28;20289;-32
2023/12/21 10:19:30;;;;;;;12.30;2.80;;;;;;;;;;5075143;28;20018;-31
2023/12/21 10:21:57;;;;;;;12.23;1.87;;;;;;;;;;5074883;28;20016;-31
2023/12/21 10:24:22;;;;;;;11.13;2.40;;;;;;;;;;5075387;28;20630;-32
2023/12/21 10:26:47;;;;;;;13.60;2.10;;;;;;;;;;5074984;28;20070;-32
2023/12/21 10:29:14;;;;;;;11.88;2.15;;;;;;;;;;5074820;28;20043;-31
2023/12/21 10:31:41;;;;;;;13.65;1.98;;;;;;;;;;5074656;28;20375;-32
2023/12/21 10:34:09;;;;;;;11.75;2.10;;;;;;;;;;5074913;28;20047;-31
2023/12/21 10:36:37;;;;;;;11.32;1.80;;;;;;;;;;5074715;28;20020;-32
2023/12/21 10:39:02;;;;;;;11.80;2.10;;;;;;;;;;5074481;28;20017;-32
2023/12/21 10:41:29;;;;;;;9.38;1.70;;;;;;;;;;5074564;28;20009;-31
2023/12/21 10:43:54;;;;;;;10.35;2.30;;;;;;;;;;5074462;28;20164;-31
2023/12/21 10:46:19;;;;;;;13.23;1.63;;;;;;;;;;5074572;28;20080;-32
2023/12/21 10:48:44;;;;;;;12.93;2.03;;;;;;;;;;5073498;28;20737;-31
2023/12/21 10:51:10;;;;;;;10.80;1.60;;;;;;;;;;5074840;28;20021;-32
2023/12/21 10:53:36;;;;;;;11.75;1.80;;;;;;;;;;5074195;28;20031;-32
2023/12/21 10:56:02;;;;;;;13.65;2.10;;;;;;;;;;5074763;28;20103;-32
2023/12/21 10:58:29;;;;;;;10.73;1.77;;;;;;;;;;5073743;28;20383;-32
2023/12/21 11:00:55;;;;;;;8.48;1.80;;;;;;;;;;5073522;28;20096;-32
2023/12/21 11:03:21;;;;;;;9.98;1.95;;;;;;;;;;5073875;28;20041;-31
2023/12/21 11:05:46;;;;;;;15.50;2.65;;;;;;;;;;5073004;28;20028;-32
2023/12/21 11:08:11;;;;;;;13.70;2.00;;;;;;;;;;5074208;28;20092;-32
2023/12/21 11:10:37;;;;;;;13.27;1.80;;;;;;;;;;5072953;28;20404;-32
2023/12/21 11:13:02;;;;;;;16.35;1.90;;;;;;;;;;5074042;28;20021;-33
2023/12/21 11:15:28;;;;;;;11.90;2.35;;;;;;;;;;5074171;28;20017;-31
2023/12/21 11:17:54;;;;;;;12.05;1.42;;;;;;;;;;5073984;28;20151;-31
2023/12/21 11:20:22;;;;;;;10.55;1.75;;;;;;;;;;5074119;28;20364;-32
2023/12/21 11:22:47;;;;;;;13.07;1.73;;;;;;;;;;5073650;28;20019;-31
2023/12/21 11:25:13;;;;;;;15.20;2.30;;;;;;;;;;5073741;28;20439;-32
2023/12/21 11:27:39;;;;;;;10.93;1.90;;;;;;;;;;5073013;28;20052;-31
2023/12/21 11:30:10;;;;;;;12.57;2.08;;;;;;;;;;5072903;28;20074;-32
2023/12/21 11:32:36;;;;;;;13.10;2.42;;;;;;;;;;5071539;28;20017;-32
2023/12/21 11:35:01;;;;;;;13.50;2.00;;;;;;;;;;5071346;28;20020;-32
2023/12/21 11:37:26;;;;;;;8.73;2.13;;;;;;;;;;5071432;28;20063;-32
2023/12/21 11:39:53;;;;;;;10.18;1.80;;;;;;;;;;5071685;28;20659;-32
2023/12/21 11:42:31;;;;;;;9.52;1.65;;;;;;;;;;5071287;28;20047;-31
2023/12/21 11:45:00;;;;;;;11.57;1.70;;;;;;;;;;5071286;28;20009;-32
2023/12/21 11:47:26;;;;;;;15.45;2.13;;;;;;;;;;5072752;28;20020;-32
2023/12/21 11:50:02;;;;;;;9.25;1.90;;;;;;;;;;5073411;28;20335;-32
2023/12/21 11:52:27;;;;;;;9.90;2.05;;;;;;;;;;5073675;28;20035;-32
2023/12/21 11:54:53;;;;;;;14.57;2.00;;;;;;;;;;5073965;28;20017;-31
2023/12/21 11:57:18;;;;;;;12.43;1.80;;;;;;;;;;5073362;28;20020;-32
2023/12/21 11:59:43;;;;;;;12.80;2.13;;;;;;;;;;5072920;28;20029;-32
2023/12/21 12:02:11;;;;;;;8.57;1.75;;;;;;;;;;5073513;28;20088;-32
2023/12/21 12:04:36;;;;;;;12.18;2.00;;;;;;;;;;5073045;28;20048;-32
2023/12/21 12:07:04;;;;;;;18.67;3.17;;;;;;;;;;5072720;28;20016;-31
2023/12/21 12:09:29;;;;;;;13.45;2.38;;;;;;;;;;5072865;28;20024;-31
2023/12/21 12:11:54;;;;;;;12.88;3.10;;;;;;;;;;5072056;28;20099;-32
2023/12/21 12:14:20;;;;;;;12.80;2.50;;;;;;;;;;5073218;28;20081;-32
2023/12/21 12:16:46;;;;;;;12.77;2.08;;;;;;;;;;5073736;28;20752;-31
2023/12/21 12:19:12;;;;;;;10.52;2.03;;;;;;;;;;5073120;28;20391;-32
2023/12/21 12:21:37;;;;;;;15.50;2.25;;;;;;;;;;5072388;28;20012;-32
2023/12/21 12:24:02;;;;;;;14.88;2.25;;;;;;;;;;5073670;28;20039;-32
2023/12/21 12:26:29;;;;;;;19.75;2.47;;;;;;;;;;5073649;28;20017;-32
2023/12/21 12:28:54;;;;;;;10.27;2.28;;;;;;;;;;5073091;28;20175;-32
2023/12/21 12:31:19;;;;;;;8.40;1.60;;;;;;;;;;5073539;28;20474;-32
2023/12/21 12:33:47;;;;;;;13.38;1.75;;;;;;;;;;5073067;28;20444;-32
2023/12/21 12:36:12;;;;;;;15.88;2.13;;;;;;;;;;5073316;28;20064;-31
2023/12/21 12:38:37;;;;;;;11.60;1.85;;;;;;;;;;5072940;28;20056;-32
2023/12/21 12:41:02;;;;;;;9.52;1.73;;;;;;;;;;5072949;28;20113;-32
2023/12/21 12:43:34;;;;;;;13.55;2.35;;;;;;;;;;5073295;28;20439;-32
2023/12/21 12:45:59;;;;;;;17.35;2.30;;;;;;;;;;5073168;28;20149;-32
2023/12/21 12:48:24;;;;;;;13.38;2.88;;;;;;;;;;5073098;28;20131;-31
2023/12/21 12:50:50;;;;;;;15.98;3.08;;;;;;;;;;5073088;28;20021;-31
2023/12/21 12:53:16;;;;;;;14.02;2.17;;;;;;;;;;5072833;28;20040;-32
2023/12/21 12:55:44;;;;;;;18.42;2.45;;;;;;;;;;5073134;28;20348;-32
2023/12/21 12:58:10;;;;;;;18.45;2.40;;;;;;;;;;5072889;28;20025;-32
2023/12/21 13:00:35;;;;;;;15.23;2.60;;;;;;;;;;5072752;28;20491;-32
2023/12/21 13:03:00;;;;;;;12.13;2.40;;;;;;;;;;5072623;28;20279;-32
2023/12/21 13:05:25;;;;;;;21.20;2.77;;;;;;;;;;5072678;28;20009;-31
2023/12/21 13:07:50;;;;;;;14.53;2.00;;;;;;;;;;5073188;28;20247;-32
2023/12/21 13:10:16;;;;;;;17.90;2.33;;;;;;;;;;5072940;28;20301;-31
2023/12/21 13:12:44;;;;;;;19.30;2.70;;;;;;;;;;5076127;28;20262;-32
2023/12/21 13:15:12;;;;;;;15.30;2.40;;;;;;;;;;5076269;28;20024;-31
2023/12/21 13:17:37;;;;;;;18.70;2.42;;;;;;;;;;5076054;28;20020;-32
2023/12/21 13:20:05;;;;;;;21.90;2.30;;;;;;;;;;5076431;28;20009;-32
2023/12/21 13:22:30;;;;;;;16.08;2.55;;;;;;;;;;5076346;28;20017;-32
2023/12/21 13:24:55;;;;;;;19.08;2.50;;;;;;;;;;5075988;28;20349;-32
2023/12/21 13:27:20;;;;;;;15.83;2.40;;;;;;;;;;5076523;28;20017;-31
2023/12/21 13:29:46;;;;;;;22.52;2.75;;;;;;;;;;5074589;28;20266;-31
2023/12/21 13:32:12;;;;;;;17.40;2.53;;;;;;;;;;5076009;28;20078;-31
2023/12/21 13:34:39;;;;;;;15.57;2.80;;;;;;;;;;5075978;28;20451;-32
2023/12/21 13:37:05;;;;;;;19.48;2.75;;;;;;;;;;5075740;28;20035;-31
2023/12/21 13:39:30;;;;;;;23.08;2.45;;;;;;;;;;5075852;28;20028;-31
2023/12/21 13:41:56;;;;;;;18.60;2.63;;;;;;;;;;5075756;28;20046;-31
2023/12/21 13:44:22;;;;;;;17.67;2.83;;;;;;;;;;5075608;28;20258;-31
2023/12/21 13:46:47;;;;;;;15.98;2.58;;;;;;;;;;5075868;28;20070;-31
2023/12/21 13:49:12;;;;;;;16.08;2.60;;;;;;;;;;5075752;28;20376;-32
2023/12/21 13:51:38;;;;;;;18.85;2.65;;;;;;;;;;5075491;28;20031;-32
2023/12/21 13:54:03;;;;;;;27.83;7.25;;;;;;;;;;5075729;28;20024;-32
2023/12/21 13:56:29;;;;;;;26.30;3.17;;;;;;;;;;5075891;28;20024;-31
2023/12/21 13:58:54;;;;;;;16.60;2.43;;;;;;;;;;5073959;28;20321;-32
2023/12/21 14:01:22;;;;;;;28.55;3.50;;;;;;;;;;5075272;28;20262;-32
2023/12/21 14:03:47;;;;;;;17.25;3.40;;;;;;;;;;5075143;28;20040;-32
2023/12/21 14:06:13;;;;;;;35.28;4.00;;;;;;;;;;5075785;28;20012;-32
2023/12/21 14:08:38;;;;;;;26.90;4.40;;;;;;;;;;5075446;28;20463;-31
2023/12/21 14:11:03;;;;;;;29.02;3.85;;;;;;;;;;5075026;28;20194;-32
2023/12/21 14:13:28;;;;;;;25.33;3.88;;;;;;;;;;5075697;28;20032;-33
2023/12/21 14:15:53;;;;;;;22.23;3.73;;;;;;;;;;5074939;28;20484;-32
2023/12/21 14:18:19;;;;;;;18.27;2.78;;;;;;;;;;5074773;28;20108;-32
2023/12/21 14:20:47;;;;;;;24.00;3.08;;;;;;;;;;5075177;28;20071;-32